Pittsburgh, Pennsylvania
Traffic Map
Current Weather Conditions
Pittsburgh, Pennsylvania
Clear
Clear
73°
Feels Like: 73°
Wind Chill: 73° Ceiling: Unl
Heat Index: 73° Visibility: 10mi
Dew Point: 68° Wind: 7mph
Humidity: 84% Direction: 180° (S)
Pressure: 30.08in Gusts: 0mph
Raw Report DataKAGC 220553Z 18006KT 10SM CLR 23/20 A3008 RMK AO2 SLP181 T02280200 10272 20228 57014
Traffic Incident Summary
Active as of:
Severity:
Category:
InformationThere was an issue retrieving the traffic information for this location. Please try a different location or try again shortly.
Advertisements